Time;durP1;ratioP1;P1;durP2;ratioP2;P2;SDS_P1;SDS_P2;PMS_P1;PMS_P2;Temp;Humidity;BMP_temperature;BMP_pressure;BME280_temperature;BME280_humidity;BME280_pressure;Samples;Min_cycle;Max_cycle;Signal;HPM_P1;HPM_P2
2022/07/05 00:00:54;;;;;;;;;;;;;;;22.56;100.00;98251.41;1741108;80;24405;-87
2022/07/05 00:03:23;;;;;;;;;;;;;;;22.42;100.00;98250.95;1732268;82;20292;-87
2022/07/05 00:05:50;;;;;;;;;;;;;;;22.28;100.00;98238.44;1735966;81;25508;-87
2022/07/05 00:08:24;;;;;;;;;;;;;;;22.17;100.00;98238.91;1738330;81;22045;-85
2022/07/05 00:10:52;;;;;;;;;;;;;;;22.17;100.00;98239.74;1739905;81;25969;-85
2022/07/05 00:13:18;;;;;;;;;;;;;;;22.23;100.00;98247.50;1743969;81;24611;-85
2022/07/05 00:15:44;;;;;;;;;;;;;;;22.25;100.00;98242.83;1742237;80;20518;-85
2022/07/05 00:18:11;;;;;;;;;;;;;;;22.36;100.00;98247.19;1741108;81;20193;-86
2022/07/05 00:20:37;;;;;;;;;;;;;;;22.46;100.00;98247.71;1760905;81;21946;-86
2022/07/05 00:23:02;;;;;;;;;;;;;;;22.56;100.00;98252.75;1769742;79;47076;-86
2022/07/05 00:25:29;;;;;;;;;;;;;;;22.55;100.00;98237.75;1736568;81;24510;-86
2022/07/05 00:27:54;;;;;;;;;;;;;;;22.41;100.00;98235.95;1723621;80;20246;-84
2022/07/05 00:30:20;;;;;;;;;;;;;;;22.30;100.00;98230.59;1725846;80;20808;-84
2022/07/05 00:32:46;;;;;;;;;;;;;;;22.28;100.00;98233.11;1716629;81;20900;-84
2022/07/05 00:35:12;;;;;;;;;;;;;;;22.28;100.00;98233.11;1709991;82;21108;-86
2022/07/05 00:37:38;;;;;;;;;;;;;;;22.36;100.00;98238.36;1759977;80;20511;-86
2022/07/05 00:40:05;;;;;;;;;;;;;;;22.44;100.00;98239.56;1752962;81;20762;-86
2022/07/05 00:42:32;;;;;;;;;;;;;;;22.49;100.00;98237.99;1747022;81;24805;-86
2022/07/05 00:44:59;;;;;;;;;;;;;;;22.53;100.00;98244.59;1742815;81;21966;-84
2022/07/05 00:47:25;;;;;;;;;;;;;;;22.52;100.00;98246.97;1750373;81;26243;-85
2022/07/05 00:49:52;;;;;;;;;;;;;;;22.50;100.00;98245.48;1746047;80;24437;-85
2022/07/05 00:52:18;;;;;;;;;;;;;;;22.46;100.00;98247.71;1753389;81;20303;-84
2022/07/05 00:54:44;;;;;;;;;;;;;;;22.43;100.00;98249.41;1743609;80;24753;-89
2022/07/05 00:57:10;;;;;;;;;;;;;;;22.41;100.00;98251.45;1711019;81;21946;-88
2022/07/05 00:59:37;;;;;;;;;;;;;;;22.40;100.00;98252.45;1729137;82;20961;-86
2022/07/05 01:02:03;;;;;;;;;;;;;;;22.37;100.00;98254.14;1725493;82;24666;-85
2022/07/05 01:04:29;;;;;;;;;;;;;;;22.32;100.00;98252.55;1718771;82;20175;-89
2022/07/05 01:06:55;;;;;;;;;;;;;;;22.30;100.00;98250.59;1726431;82;20234;-89
2022/07/05 01:09:22;;;;;;;;;;;;;;;22.28;100.00;98251.77;1723053;82;21786;-85
2022/07/05 01:11:50;;;;;;;;;;;;;;;22.25;100.00;98251.66;1727226;82;25974;-85
2022/07/05 01:14:17;;;;;;;;;;;;;;;22.21;100.00;98245.52;1728827;82;24528;-85
2022/07/05 01:16:43;;;;;;;;;;;;;;;22.16;100.00;98244.75;1721557;82;20236;-89
2022/07/05 01:19:10;;;;;;;;;;;;;;;22.08;100.00;98244.36;1728055;82;24746;-86
2022/07/05 01:21:45;;;;;;;;;;;;;;;21.96;100.00;98239.66;1725224;82;37345;-85
2022/07/05 01:24:15;;;;;;;;;;;;;;;21.79;100.00;98232.31;1721385;82;25904;-85
2022/07/05 01:26:45;;;;;;;;;;;;;;;21.64;100.00;98232.31;1732523;82;24586;-89
2022/07/05 01:29:11;;;;;;;;;;;;;;;21.54;100.00;98230.92;1730742;82;20351;-89
2022/07/05 01:31:38;;;;;;;;;;;;;;;21.54;100.00;98226.92;1734431;82;24745;-85
2022/07/05 01:34:05;;;;;;;;;;;;;;;21.58;100.00;98226.88;1727067;82;22049;-85
2022/07/05 01:36:40;;;;;;;;;;;;;;;21.47;100.00;98224.66;1730446;81;25960;-85
2022/07/05 01:39:07;;;;;;;;;;;;;;;21.52;100.00;98223.11;1725256;82;24391;-86
2022/07/05 01:41:32;;;;;;;;;;;;;;;21.66;100.00;98229.44;1722910;81;20232;-86
2022/07/05 01:44:00;;;;;;;;;;;;;;;21.80;100.00;98231.81;1727925;81;20745;-85
2022/07/05 01:46:29;;;;;;;;;;;;;;;21.86;100.00;98235.08;1731024;82;21731;-89
2022/07/05 01:48:56;;;;;;;;;;;;;;;21.89;100.00;98233.37;1725215;81;26674;-86
2022/07/05 01:51:24;;;;;;;;;;;;;;;21.89;100.00;98239.53;1730488;82;24544;-89
2022/07/05 01:53:52;;;;;;;;;;;;;;;21.90;100.00;98238.52;1745816;80;20242;-86
2022/07/05 01:56:18;;;;;;;;;;;;;;;21.90;100.00;98241.69;1741105;80;24874;-84
2022/07/05 01:58:46;;;;;;;;;;;;;;;21.90;100.00;98239.86;1739027;80;20828;-85
2022/07/05 02:01:18;;;;;;;;;;;;;;;21.87;100.00;98240.23;1715905;81;26705;-86
2022/07/05 02:03:45;;;;;;;;;;;;;;;21.84;100.00;98237.92;1689911;83;25256;-86
2022/07/05 02:06:12;;;;;;;;;;;;;;;21.81;100.00;98239.63;1699495;83;20519;-87
2022/07/05 02:08:38;;;;;;;;;;;;;;;21.78;100.00;98239.98;1682304;83;24739;-87
2022/07/05 02:11:04;;;;;;;;;;;;;;;21.72;100.00;98242.03;1696294;82;20314;-85
2022/07/05 02:13:32;;;;;;;;;;;;;;;21.65;100.00;98239.30;1712809;82;21055;-85
2022/07/05 02:15:58;;;;;;;;;;;;;;;21.61;100.00;98242.48;1680886;84;24527;-87
2022/07/05 02:18:24;;;;;;;;;;;;;;;21.60;100.00;98246.17;1698940;83;20805;-85
2022/07/05 02:20:53;;;;;;;;;;;;;;;21.58;100.00;98241.02;1722881;82;24905;-88
2022/07/05 02:23:19;;;;;;;;;;;;;;;21.60;100.00;98238.19;1724030;82;22161;-88
2022/07/05 02:25:44;;;;;;;;;;;;;;;21.61;100.00;98237.16;1723984;81;21036;-87
2022/07/05 02:28:11;;;;;;;;;;;;;;;21.60;100.00;98238.19;1726072;81;20933;-86
2022/07/05 02:30:43;;;;;;;;;;;;;;;21.60;100.00;98240.85;1723821;81;20502;-87
2022/07/05 02:33:13;;;;;;;;;;;;;;;21.59;100.00;98238.69;1715999;82;25479;-86
2022/07/05 02:35:39;;;;;;;;;;;;;;;21.62;100.00;98241.48;1712797;82;21977;-86
2022/07/05 02:38:06;;;;;;;;;;;;;;;21.64;100.00;98235.48;1693563;82;20968;-87
2022/07/05 02:40:32;;;;;;;;;;;;;;;21.64;100.00;98236.81;1689730;83;24605;-86
2022/07/05 02:42:57;;;;;;;;;;;;;;;21.59;100.00;98233.36;1715011;82;20384;-86
2022/07/05 02:45:29;;;;;;;;;;;;;;;21.55;100.00;98227.22;1688901;84;21479;-88
2022/07/05 02:47:57;;;;;;;;;;;;;;;21.55;100.00;98223.23;1685347;83;22051;-86
2022/07/05 02:50:29;;;;;;;;;;;;;;;21.56;100.00;98230.22;1713120;81;26040;-84
2022/07/05 02:52:55;;;;;;;;;;;;;;;21.58;100.00;98232.20;1729063;82;24487;-88
2022/07/05 02:55:21;;;;;;;;;;;;;;;21.60;100.00;98237.66;1736575;82;20308;-86
2022/07/05 02:57:48;;;;;;;;;;;;;;;21.62;100.00;98240.98;1770594;80;20239;-86
2022/07/05 03:00:14;;;;;;;;;;;;;;;21.60;100.00;98235.52;1771751;79;22805;-85
2022/07/05 03:02:46;;;;;;;;;;;;;;;21.56;100.00;98232.87;1774390;78;21011;-84
2022/07/05 03:05:13;;;;;;;;;;;;;;;21.54;100.00;98229.59;1774238;78;24427;-84
2022/07/05 03:07:41;;;;;;;;;;;;;;;21.50;100.00;98230.94;1771624;79;20507;-84
2022/07/05 03:10:13;;;;;;;;;;;;;;;21.43;100.00;98232.19;1774904;78;24836;-85
2022/07/05 03:12:52;;;;;;;;;;;;;;;21.42;100.00;98244.34;1764311;80;22255;-85
2022/07/05 03:15:19;;;;;;;;;;;;;;;21.42;100.00;98243.84;1754239;79;26290;-85
2022/07/05 03:17:48;;;;;;;;;;;;;;;21.41;100.00;98246.67;1767020;80;24511;-84
2022/07/05 03:20:14;;;;;;;;;;;;;;;21.39;100.00;98246.02;1759684;79;20462;-84
2022/07/05 03:22:40;;;;;;;;;;;;;;;21.37;100.00;98245.39;1747890;79;24754;-84
2022/07/05 03:25:07;;;;;;;;;;;;;;;21.35;100.00;98244.23;1768179;79;21975;-85
2022/07/05 03:27:33;;;;;;;;;;;;;;;21.31;100.00;98244.77;1741057;81;26026;-85
2022/07/05 03:29:58;;;;;;;;;;;;;;;21.27;100.00;98239.78;1734738;80;20911;-85
2022/07/05 03:32:33;;;;;;;;;;;;;;;21.25;100.00;98237.83;1766170;80;20878;-85
2022/07/05 03:34:59;;;;;;;;;;;;;;;21.26;100.00;98244.81;1736871;80;24804;-85
2022/07/05 03:37:25;;;;;;;;;;;;;;;21.31;100.00;98251.42;1730417;81;20266;-86
2022/07/05 03:39:51;;;;;;;;;;;;;;;21.32;100.00;98255.25;1770337;80;20906;-86
2022/07/05 03:42:17;;;;;;;;;;;;;;;21.33;100.00;98257.41;1742523;81;20335;-84
2022/07/05 03:44:44;;;;;;;;;;;;;;;21.34;100.00;98264.36;1773064;78;20283;-85
2022/07/05 03:47:10;;;;;;;;;;;;;;;21.35;100.00;98270.02;1738868;81;24761;-84
2022/07/05 03:49:35;;;;;;;;;;;;;;;21.33;100.00;98276.05;1764185;80;20861;-86
2022/07/05 03:52:03;;;;;;;;;;;;;;;21.28;100.00;98278.72;1753507;79;21603;-84
2022/07/05 03:54:29;;;;;;;;;;;;;;;21.26;100.00;98275.42;1754433;81;25082;-86
2022/07/05 03:56:55;;;;;;;;;;;;;;;21.25;100.00;98281.75;1748650;81;20323;-88
2022/07/05 03:59:21;;;;;;;;;;;;;;;21.23;100.00;98279.75;1745336;80;20727;-85
2022/07/05 04:01:47;;;;;;;;;;;;;;;21.14;100.00;98270.19;1745751;80;20257;-86
2022/07/05 04:04:12;;;;;;;;;;;;;;;21.13;100.00;98274.31;1743666;81;21000;-86
2022/07/05 04:06:39;;;;;;;;;;;;;;;21.10;100.00;98270.69;1739264;80;20917;-86
2022/07/05 04:09:05;;;;;;;;;;;;;;;21.08;100.00;98275.34;1740324;80;20303;-86
2022/07/05 04:11:31;;;;;;;;;;;;;;;21.08;100.00;98276.68;1729825;81;20231;-86
2022/07/05 04:13:57;;;;;;;;;;;;;;;21.07;100.00;98273.19;1757338;79;20461;-86
2022/07/05 04:16:23;;;;;;;;;;;;;;;21.05;100.00;98277.88;1740181;82;21012;-86
2022/07/05 04:18:49;;;;;;;;;;;;;;;21.03;100.00;98278.55;1739011;82;20896;-85
2022/07/05 04:21:17;;;;;;;;;;;;;;;21.03;100.00;98281.70;1744695;80;20221;-86
2022/07/05 04:23:43;;;;;;;;;;;;;;;21.03;100.00;98285.20;1739285;82;24852;-85
2022/07/05 04:26:11;;;;;;;;;;;;;;;21.02;100.00;98290.19;1742085;79;20862;-87
2022/07/05 04:28:37;;;;;;;;;;;;;;;21.00;100.00;98291.39;1734445;79;26049;-85
2022/07/05 04:31:03;;;;;;;;;;;;;;;20.98;100.00;98283.58;1732023;82;20207;-86
2022/07/05 04:33:31;;;;;;;;;;;;;;;20.94;100.00;98290.76;1741510;82;20761;-84
2022/07/05 04:35:57;;;;;;;;;;;;;;;20.80;100.00;98289.16;1737139;79;25033;-84
2022/07/05 04:38:23;;;;;;;;;;;;;;;20.68;100.00;98287.06;1737190;79;20373;-87
2022/07/05 04:40:49;;;;;;;;;;;;;;;20.57;100.00;98288.78;1748191;79;21025;-84
2022/07/05 04:43:15;;;;;;;;;;;;;;;20.43;100.00;98283.20;1739813;82;20865;-84
2022/07/05 04:45:43;;;;;;;;;;;;;;;20.36;100.00;98280.07;1740870;82;20218;-84
2022/07/05 04:48:09;;;;;;;;;;;;;;;20.35;100.00;98280.56;1740980;79;24862;-87
2022/07/05 04:50:35;;;;;;;;;;;;;;;20.30;100.00;98291.36;1736963;80;20778;-86
2022/07/05 04:53:03;;;;;;;;;;;;;;;20.25;100.00;98289.72;1729931;81;26089;-85
2022/07/05 04:55:30;;;;;;;;;;;;;;;20.24;100.00;98290.71;1732558;82;24304;-85
2022/07/05 04:57:56;;;;;;;;;;;;;;;20.17;100.00;98290.59;1728285;82;20696;-84
2022/07/05 05:00:28;;;;;;;;;;;;;;;20.22;100.00;98301.53;1726005;82;24745;-84
2022/07/05 05:02:57;;;;;;;;;;;;;;;20.26;100.00;98292.70;1732050;82;22187;-84
2022/07/05 05:05:26;;;;;;;;;;;;;;;20.32;100.00;98292.89;1725628;82;26707;-84
2022/07/05 05:07:56;;;;;;;;;;;;;;;20.32;100.00;98304.02;1727229;82;25245;-84
2022/07/05 05:10:19;;;;;;;;;;;;;;;20.41;100.00;98309.13;1734819;82;20214;-84
2022/07/05 05:12:45;;;;;;;;;;;;;;;20.40;100.00;98310.12;1718490;82;20868;-84
2022/07/05 05:15:11;;;;;;;;;;;;;;;20.41;100.00;98314.94;1731654;82;20379;-84
2022/07/05 05:17:38;;;;;;;;;;;;;;;20.41;100.00;98314.44;1729483;82;21704;-87
2022/07/05 05:20:09;;;;;;;;;;;;;;;20.33;100.00;98316.31;1730915;82;24485;-86
2022/07/05 05:22:40;;;;;;;;;;;;;;;20.30;100.00;98318.77;1726247;82;20255;-85
2022/07/05 05:25:07;;;;;;;;;;;;;;;20.25;100.00;98320.28;1730540;82;25609;-84
2022/07/05 05:27:37;;;;;;;;;;;;;;;20.27;100.00;98315.13;1730355;82;21946;-84
2022/07/05 05:30:03;;;;;;;;;;;;;;;20.29;100.00;98318.96;1732383;82;26073;-87
2022/07/05 05:32:29;;;;;;;;;;;;;;;20.35;100.00;98317.78;1726110;82;24448;-85
2022/07/05 05:34:58;;;;;;;;;;;;;;;20.46;100.00;98320.06;1722855;82;20262;-85
2022/07/05 05:37:34;;;;;;;;;;;;;;;20.60;100.00;98317.70;1726817;82;24832;-84
2022/07/05 05:40:03;;;;;;;;;;;;;;;20.66;100.00;98318.34;1728009;82;22778;-85
2022/07/05 05:42:32;;;;;;;;;;;;;;;20.73;100.00;98319.31;1724615;82;26179;-85
2022/07/05 05:44:58;;;;;;;;;;;;;;;20.78;100.00;98326.27;1725229;82;25474;-86
2022/07/05 05:47:24;;;;;;;;;;;;;;;20.84;100.00;98333.52;1726735;82;20234;-86
2022/07/05 05:49:50;;;;;;;;;;;;;;;20.84;100.00;98326.88;1726400;82;20522;-86
2022/07/05 05:52:16;;;;;;;;;;;;;;;20.82;100.00;98332.39;1745786;79;20234;-87
2022/07/05 05:54:46;;;;;;;;;;;;;;;20.81;100.00;98335.22;1741224;82;39201;-87
2022/07/05 05:57:13;;;;;;;;;;;;;;;20.74;100.00;98330.25;1748749;81;25167;-86
2022/07/05 05:59:39;;;;;;;;;;;;;;;20.61;100.00;98324.68;1745203;81;20209;-87
2022/07/05 06:02:05;;;;;;;;;;;;;;;20.53;100.00;98319.38;1748989;80;20366;-87
2022/07/05 06:04:31;;;;;;;;;;;;;;;20.44;100.00;98318.10;1746063;80;21603;-87
2022/07/05 06:07:03;;;;;;;;;;;;;;;20.35;100.00;98323.09;1744044;81;21135;-87
2022/07/05 06:09:29;;;;;;;;;;;;;;;20.29;100.00;98325.08;1758615;81;24723;-86
2022/07/05 06:11:55;;;;;;;;;;;;;;;20.24;100.00;98319.45;1764602;81;20804;-86
2022/07/05 06:14:21;;;;;;;;;;;;;;;20.18;100.00;98312.19;1761571;80;20818;-87
2022/07/05 06:16:56;;;;;;;;;;;;;;;20.13;100.00;98313.70;1760695;81;20880;-86
2022/07/05 06:19:22;;;;;;;;;;;;;;;20.08;100.00;98314.67;1727795;81;26079;-86
2022/07/05 06:21:48;;;;;;;;;;;;;;;20.04;100.00;98312.87;1750672;81;20303;-86
2022/07/05 06:24:19;;;;;;;;;;;;;;;20.01;100.00;98310.56;1763587;80;20748;-86
2022/07/05 06:26:52;;;;;;;;;;;;;;;20.00;100.00;98310.23;1731237;81;25009;-86
2022/07/05 06:29:18;;;;;;;;;;;;;;;19.98;100.00;98308.23;1742174;80;22010;-85
2022/07/05 06:31:50;;;;;;;;;;;;;;;19.94;100.00;98306.91;1744440;80;21131;-85
2022/07/05 06:34:16;;;;;;;;;;;;;;;19.88;100.00;98300.95;1742319;81;24449;-85
2022/07/05 06:36:48;;;;;;;;;;;;;;;19.81;100.00;98303.44;1743938;80;20778;-85
2022/07/05 06:39:14;;;;;;;;;;;;;;;19.75;100.00;98308.09;1749892;80;24784;-84
2022/07/05 06:41:40;;;;;;;;;;;;;;;19.74;100.00;98313.10;1744633;81;21952;-85
2022/07/05 06:44:12;;;;;;;;;;;;;;;19.74;100.00;98304.30;1741889;80;21042;-85
2022/07/05 06:46:43;;;;;;;;;;;;;;;19.76;100.00;98300.95;1750262;81;24515;-85
2022/07/05 06:49:17;;;;;;;;;;;;;;;19.76;100.00;98314.23;1741079;81;20269;-85
2022/07/05 06:51:44;;;;;;;;;;;;;;;19.77;100.00;98302.63;1729647;81;24788;-85
2022/07/05 06:54:13;;;;;;;;;;;;;;;19.81;100.00;98298.63;1737762;82;22095;-85
2022/07/05 06:56:47;;;;;;;;;;;;;;;19.85;100.00;98301.30;1732634;80;26030;-85
2022/07/05 06:59:13;;;;;;;;;;;;;;;19.84;100.00;98302.29;1733683;80;24527;-87
2022/07/05 07:01:39;;;;;;;;;;;;;;;19.86;100.00;98309.08;1732233;82;20241;-85
2022/07/05 07:04:07;;;;;;;;;;;;;;;19.95;100.00;98312.56;1731187;82;25388;-85
2022/07/05 07:06:34;;;;;;;;;;;;;;;20.08;100.00;98319.98;1732696;82;22058;-85
2022/07/05 07:09:22;;;;;;;;;;;;;;;20.17;100.00;98319.82;1729421;80;25955;-87
2022/07/05 07:11:49;;;;;;;;;;;;;;;20.35;100.00;98319.61;1726965;80;24486;-88
2022/07/05 07:14:15;;;;;;;;;;;;;;;20.51;100.00;98315.56;1732558;80;20533;-88
2022/07/05 07:16:41;;;;;;;;;;;;;;;20.62;100.00;98311.72;1731097;80;24967;-86
2022/07/05 07:19:07;;;;;;;;;;;;;;;20.71;100.00;98312.83;1746565;80;21990;-85
2022/07/05 07:21:39;;;;;;;;;;;;;;;20.73;100.00;98310.00;1714605;82;21064;-85
2022/07/05 07:24:05;;;;;;;;;;;;;;;20.65;100.00;98307.37;1745109;82;24382;-85
2022/07/05 07:27:02;;;;;;;;;;;;;;;20.61;100.00;98308.23;1746787;81;20456;-86
2022/07/05 07:29:10;;;;;;;;;;;;;;;20.56;100.00;98309.25;1741865;81;25275;-87
2022/07/05 07:31:36;;;;;;;;;;;;;;;20.50;100.00;98305.12;1752639;81;22153;-87
2022/07/05 07:34:02;;;;;;;;;;;;;;;20.47;100.00;98311.59;1748344;81;26002;-87
2022/07/05 07:36:28;;;;;;;;;;;;;;;20.55;100.00;98308.09;1747050;81;20265;-86
2022/07/05 07:38:54;;;;;;;;;;;;;;;20.61;100.00;98308.73;1750765;80;20317;-86
2022/07/05 07:41:20;;;;;;;;;;;;;;;20.69;100.00;98308.67;1752909;81;24727;-86
2022/07/05 07:43:52;;;;;;;;;;;;;;;20.75;100.00;98313.30;1752691;80;20222;-85
2022/07/05 07:46:23;;;;;;;;;;;;;;;20.83;100.00;98321.25;1719655;81;26084;-85
2022/07/05 07:48:49;;;;;;;;;;;;;;;20.91;100.00;98323.85;1686920;84;24526;-85
2022/07/05 07:51:16;;;;;;;;;;;;;;;20.98;100.00;98326.14;1745202;80;20250;-85
2022/07/05 07:53:43;;;;;;;;;;;;;;;20.95;100.00;98328.34;1703821;82;25354;-85
2022/07/05 07:56:13;;;;;;;;;;;;;;;20.91;100.00;98326.52;1710242;81;20198;-86
2022/07/05 07:58:38;;;;;;;;;;;;;;;20.93;100.00;98332.99;1740878;81;25958;-86
2022/07/05 08:01:10;;;;;;;;;;;;;;;20.94;100.00;98328.01;1707744;82;20815;-86
2022/07/05 08:03:41;;;;;;;;;;;;;;;20.98;100.00;98329.30;1741330;81;20279;-85
2022/07/05 08:06:33;;;;;;;;;;;;;;;20.93;100.00;98332.99;1732618;82;121119;-85
2022/07/05 08:08:59;;;;;;;;;;;;;;;20.91;100.00;98333.16;1743053;80;26767;-85
2022/07/05 08:11:25;;;;;;;;;;;;;;;20.94;100.00;98335.98;1744173;82;26098;-85
2022/07/05 08:13:57;;;;;;;;;;;;;;;21.00;100.00;98331.30;1737120;80;20250;-88
2022/07/05 08:16:23;;;;;;;;;;;;;;;21.11;100.00;98345.54;1740228;82;20207;-87
2022/07/05 08:21:38;;;;;;;;;;;;;;;21.25;100.00;98340.81;1738676;82;21993;-88
2022/07/05 08:24:05;;;;;;;;;;;;;;;21.31;100.00;98342.77;1734930;81;26136;-88
2022/07/05 08:26:32;;;;;;;;;;;;;;;21.34;100.00;98340.23;1741230;81;24389;-86
2022/07/05 08:28:59;;;;;;;;;;;;;;;21.34;100.00;98336.24;1742828;81;20437;-86
2022/07/05 08:31:26;;;;;;;;;;;;;;;21.31;100.00;98341.44;1736844;82;24739;-86
2022/07/05 08:33:54;;;;;;;;;;;;;;;21.25;100.00;98342.97;1743916;82;21991;-86
2022/07/05 08:36:21;;;;;;;;;;;;;;;21.26;100.00;98340.64;1740116;80;26077;-85
2022/07/05 08:38:47;;;;;;;;;;;;;;;21.25;100.00;98348.30;1735441;82;25135;-85
2022/07/05 08:41:15;;;;;;;;;;;;;;;21.08;100.00;98346.70;1739263;82;20501;-85
2022/07/05 08:43:42;;;;;;;;;;;;;;;20.96;100.00;98349.42;1737750;82;24878;-87
2022/07/05 08:46:11;;;;;;;;;;;;;;;20.92;100.00;98354.78;1736996;80;22078;-85
2022/07/05 08:48:44;;;;;;;;;;;;;;;20.87;100.00;98351.81;1707761;83;26027;-85
2022/07/05 09:04:10;;;;;;;;;;;;;;;21.18;100.00;98348.66;1801257;78;20212;-85
2022/07/05 09:06:40;;;;;;;;;;;;;;;21.29;100.00;98355.41;1765827;79;22045;-85
2022/07/05 09:09:07;;;;;;;;;;;;;;;21.32;100.00;98348.42;1772423;79;26152;-87
2022/07/05 09:11:37;;;;;;;;;;;;;;;21.27;100.00;98353.45;1764878;80;24584;-87
2022/07/05 09:14:06;;;;;;;;;;;;;;;21.23;100.00;98350.30;1769291;79;20195;-85
2022/07/05 09:16:32;;;;;;;;;;;;;;;21.15;100.00;98345.03;1765329;79;24723;-85
2022/07/05 09:19:06;;;;;;;;;;;;;;;21.11;100.00;98344.20;1769299;79;22054;-86
2022/07/05 09:21:32;;;;;;;;;;;;;;;21.11;100.00;98341.02;1768463;79;26866;-86
2022/07/05 09:24:02;;;;;;;;;;;;;;;21.06;100.00;98343.38;1767114;80;20259;-86
2022/07/05 09:26:45;;;;;;;;;;;;;;;21.03;100.00;98347.73;1771438;79;20431;-86
2022/07/05 09:29:13;;;;;;;;;;;;;;;21.08;100.00;98351.19;1764740;79;24539;-86
2022/07/05 09:31:41;;;;;;;;;;;;;;;21.12;100.00;98347.17;1766828;79;22122;-85
2022/07/05 09:34:11;;;;;;;;;;;;;;;21.28;100.00;98351.92;1769607;79;25832;-86
2022/07/05 09:36:54;;;;;;;;;;;;;;;21.40;100.00;98353.67;1766218;79;25201;-85
2022/07/05 09:39:37;;;;;;;;;;;;;;;21.53;100.00;98362.41;1769966;80;20149;-86
2022/07/05 09:42:23;;;;;;;;;;;;;;;21.63;100.00;98366.98;1764412;79;24316;-86
2022/07/05 09:44:54;;;;;;;;;;;;;;;21.69;100.00;98365.78;1763978;79;22009;-86
2022/07/05 09:47:21;;;;;;;;;;;;;;;21.68;100.00;98363.28;1766104;79;26871;-86
2022/07/05 09:49:51;;;;;;;;;;;;;;;21.49;100.00;98363.78;1771442;79;25124;-86
2022/07/05 09:52:28;;;;;;;;;;;;;;;21.31;100.00;98370.72;1769813;80;20308;-86
2022/07/05 09:55:11;;;;;;;;;;;;;;;21.23;100.00;98366.77;1769140;79;25187;-86
2022/07/05 09:57:40;;;;;;;;;;;;;;;21.21;100.00;98368.30;1769322;80;21966;-86
2022/07/05 10:00:10;;;;;;;;;;;;;;;21.17;100.00;98365.63;1766335;80;26069;-86
2022/07/05 10:02:36;;;;;;;;;;;;;;;21.09;100.00;98364.83;1765051;79;24442;-86
2022/07/05 10:05:11;;;;;;;;;;;;;;;20.97;100.00;98368.88;1770377;79;20181;-86
2022/07/05 10:07:40;;;;;;;;;;;;;;;20.91;100.00;98362.42;1768952;79;24332;-87
2022/07/05 10:10:07;;;;;;;;;;;;;;;20.81;100.00;98358.66;1766968;80;21990;-86
2022/07/05 10:12:34;;;;;;;;;;;;;;;20.74;100.00;98359.51;1771327;80;25942;-88
2022/07/05 10:15:01;;;;;;;;;;;;;;;20.72;100.00;98360.20;1765898;80;24595;-88
2022/07/05 10:17:28;;;;;;;;;;;;;;;20.71;100.00;98350.06;1768323;79;20988;-85
2022/07/05 10:19:57;;;;;;;;;;;;;;;20.68;100.00;98356.20;1768716;79;24897;-85
2022/07/05 10:22:23;;;;;;;;;;;;;;;20.64;100.00;98362.87;1769352;79;21958;-85
2022/07/05 10:24:49;;;;;;;;;;;;;;;20.62;100.00;98357.72;1768967;80;25989;-85
2022/07/05 10:27:16;;;;;;;;;;;;;;;20.64;100.00;98358.39;1770445;79;20255;-85
2022/07/05 10:29:43;;;;;;;;;;;;;;;20.66;100.00;98355.08;1765567;80;20239;-85
2022/07/05 10:32:10;;;;;;;;;;;;;;;20.67;100.00;98355.41;1770049;80;24915;-85
2022/07/05 10:34:37;;;;;;;;;;;;;;;20.71;100.00;98358.54;1768688;80;22102;-84
2022/07/05 10:37:04;;;;;;;;;;;;;;;20.66;100.00;98358.23;1764814;79;26615;-85
2022/07/05 10:39:30;;;;;;;;;;;;;;;20.64;100.00;98358.39;1765793;80;24476;-85
2022/07/05 10:41:57;;;;;;;;;;;;;;;20.65;100.00;98356.56;1770275;79;20249;-85
2022/07/05 10:44:28;;;;;;;;;;;;;;;20.64;100.00;98356.23;1771608;79;24342;-85
2022/07/05 10:47:12;;;;;;;5.95;5.28;;;;;;;20.60;100.00;98363.73;1761817;79;22093;-85
2022/07/05 10:49:40;;;;;;;6.58;4.97;;;;;;;20.58;100.00;98362.23;1694383;83;28084;-85
2022/07/05 10:52:25;;;;;;;5.97;5.22;;;;;;;20.61;100.00;98361.91;1754210;79;28096;-85
2022/07/05 10:55:10;;;;;;;;;;;;;;;20.60;100.00;98355.77;1758037;81;28112;-85
2022/07/05 10:57:35;;;;;;;;;;;;;;;20.57;100.00;98358.74;1767249;80;24361;-88
2022/07/05 11:00:03;;;;;;;;;;;;;;;20.56;100.00;98356.28;1761187;80;20199;-88
2022/07/05 11:02:29;;;;;;;;;;;;;;;20.54;100.00;98352.45;1759580;79;26644;-87
2022/07/05 11:04:56;;;;;;;;;;;;;;;20.54;100.00;98355.11;1756396;81;20310;-87
2022/07/05 11:07:42;;;;;;;;;;;;;;;20.52;100.00;98355.77;1761724;80;20219;-88
2022/07/05 11:10:11;;;;;;;;;;;;;;;20.49;100.00;98352.14;1735417;80;25079;-87
2022/07/05 11:12:37;;;;;;;6.67;4.62;;;;;;;20.49;100.00;98359.29;1727595;81;21985;-88
2022/07/05 11:15:08;;;;;;;;;;;;;;;20.48;100.00;98350.48;1732084;80;28078;-88
2022/07/05 11:17:43;;;;;;;;;;;;;;;20.52;100.00;98354.94;1754149;79;25079;-88
2022/07/05 11:20:29;;;;;;;5.25;4.40;;;;;;;20.46;100.00;98349.31;1754330;81;20233;-88
2022/07/05 11:23:07;;;;;;;5.90;4.92;;;;;;;20.40;100.00;98351.32;1702658;82;28173;-90
2022/07/05 11:25:37;;;;;;;5.95;4.90;;;;;;;20.37;100.00;98345.53;1748585;80;28032;-89
2022/07/05 11:28:10;;;;;;;6.62;4.45;;;;;;;20.33;100.00;98342.39;1752633;79;28199;-88
2022/07/05 11:30:49;;;;;;;;;;;;;;;20.29;100.00;98343.68;1762642;79;28141;-88
2022/07/05 11:33:34;;;;;;;;;;;;;;;20.24;100.00;98348.68;1752341;79;20696;-87
2022/07/05 11:36:00;;;;;;;;;;;;;;;20.17;100.00;98345.06;1756315;80;24390;-88
2022/07/05 11:38:26;;;;;;;;;;;;;;;20.12;100.00;98345.24;1754537;79;22054;-87
2022/07/05 11:40:57;;;;;;;;;;;;;;;20.07;100.00;98348.91;1757269;79;20934;-87
2022/07/05 11:43:27;;;;;;;;;;;;;;;20.03;100.00;98338.60;1757678;81;24559;-87
2022/07/05 11:45:59;;;;;;;;;;;;;;;19.99;100.00;98343.93;1753052;80;20207;-87
2022/07/05 11:48:31;;;;;;;;;;;;;;;19.94;100.00;98342.77;1758260;81;24423;-87
2022/07/05 11:50:59;;;;;;;;;;;;;;;19.94;100.00;98346.77;1753941;80;21946;-87
2022/07/05 11:53:29;;;;;;;;;;;;;;;19.86;100.00;98339.62;1750973;81;26060;-87
2022/07/05 11:55:57;;;;;;;;;;;;;;;19.81;100.00;98341.95;1758302;81;25240;-87
2022/07/05 11:58:24;;;;;;;;;;;;;;;19.76;100.00;98335.48;1758231;79;20192;-87
2022/07/05 12:00:58;;;;;;;;;;;;;;;19.73;100.00;98342.47;1713989;81;20568;-88
2022/07/05 12:03:24;;;;;;;;;;;;;;;19.70;100.00;98343.62;1754480;80;22755;-88
2022/07/05 12:05:50;;;;;;;;;;;;;;;19.69;100.00;98334.02;1722059;81;26726;-88
2022/07/05 12:08:21;;;;;;;;;;;;;;;19.72;100.00;98331.02;1724181;82;20296;-88
2022/07/05 12:13:44;;;;;;;;;;;;;;;19.72;100.00;98324.37;1723648;82;24395;-89
2022/07/05 12:16:11;;;;;;;;;;;;;;;19.67;100.00;98320.56;1726491;81;22183;-89
2022/07/05 12:18:55;;;;;;;;;;;;;;;19.63;100.00;98319.58;1725195;82;25981;-86
2022/07/05 12:21:22;;;;;;;;;;;;;;;19.60;100.00;98313.27;1726577;78;88870;-96
2022/07/05 12:23:49;;;;;;;;;;;;;;;19.60;100.00;98317.24;1816276;78;20154;-96
2022/07/05 12:26:21;;;;;;;;;;;;;;;19.55;100.00;98320.90;1816353;79;24352;-95
2022/07/05 12:28:47;;;;;;;;;;;;;;;19.57;100.00;98325.55;1817139;79;21774;-93
2022/07/05 12:34:35;;;;;;;;;;;;;;;19.57;100.00;98324.23;1816564;79;20618;-96
2022/07/05 12:37:01;;;;;;;;;;;;;;;19.51;100.00;98330.20;1816784;79;20240;-96
2022/07/05 12:39:27;;;;;;;;;;;;;;;19.48;100.00;98331.84;1816795;79;24291;-93
2022/07/05 12:41:55;;;;;;;;;;;;;;;19.43;100.00;98331.47;1816776;79;20300;-94
2022/07/05 12:47:32;;;;;;;;;;;;;;;19.38;100.00;98332.97;1817276;79;20523;-94
2022/07/05 12:50:00;;;;;;;;;;;;;;;19.37;100.00;98333.45;1812410;79;20163;-95
2022/07/05 12:52:26;;;;;;;;;;;;;;;19.36;100.00;98331.83;1817936;79;25092;-93
2022/07/05 13:00:22;;;;;;;;;;;;;;;19.38;100.00;98336.45;1816334;79;24466;-93
2022/07/05 13:02:49;;;;;;;;;;;;;;;19.38;100.00;98335.12;1815641;79;20242;-94
2022/07/05 13:05:23;;;;;;;;;;;;;;;19.34;100.00;98337.78;1784180;79;24449;-92
2022/07/05 13:07:51;;;;;;;;;;;;;;;19.34;100.00;98338.28;1815360;77;22074;-95
2022/07/05 13:10:21;;;;;;;;;;;;;;;19.34;100.00;98342.26;1816695;79;26794;-94
2022/07/05 13:12:47;;;;;;;;;;;;;;;19.34;100.00;98351.05;1816665;79;24642;-96